Time;durP1;ratioP1;P1;durP2;ratioP2;P2;SDS_P1;SDS_P2;PMS_P1;PMS_P2;Temp;Humidity;BMP_temperature;BMP_pressure;BME280_temperature;BME280_humidity;BME280_pressure;Samples;Min_cycle;Max_cycle;Signal;HPM_P1;HPM_P2
2022/04/12 00:00:00;;;;;;;;;3.33;2.00;;;;;23.18;57.46;100313.78;5032130;28;45401;-62
2022/04/12 00:02:27;;;;;;;;;3.00;1.00;;;;;23.17;57.56;100308.44;5035462;28;45495;-62
2022/04/12 00:05:11;;;;;;;;;2.67;2.67;;;;;23.18;57.57;100318.31;5035972;28;45533;-61
2022/04/12 00:07:37;;;;;;;;;3.00;1.67;;;;;23.18;57.49;100310.22;5034627;28;46719;-63
2022/04/12 00:10:03;;;;;;;;;1.00;1.00;;;;;23.18;57.42;100307.53;5028845;28;45376;-63
2022/04/12 00:12:29;;;;;;;;;2.00;2.00;;;;;23.18;57.51;100313.78;5029840;28;45447;-62
2022/04/12 00:14:54;;;;;;;;;3.00;3.00;;;;;23.17;57.39;100309.34;5034474;28;53566;-62
2022/04/12 00:20:05;;;;;;;;;4.00;1.33;;;;;23.18;57.46;100311.09;5028272;28;45309;-61
2022/04/12 00:22:31;;;;;;;;;2.00;2.00;;;;;23.17;57.80;100305.75;5029889;28;45501;-63
2022/04/12 00:24:59;;;;;;;;;2.67;2.67;;;;;23.14;57.82;100306.78;5035393;28;45713;-62
2022/04/12 00:27:25;;;;;;;;;2.00;2.00;;;;;23.18;57.56;100310.22;5027524;28;46487;-63
2022/04/12 00:29:50;;;;;;;;;1.67;1.67;;;;;23.17;57.74;100309.34;5032887;28;45325;-61
2022/04/12 00:32:16;;;;;;;;;2.00;2.00;;;;;23.15;57.45;100308.53;5027048;28;57352;-63
2022/04/12 00:34:41;;;;;;;;;2.67;2.00;;;;;23.17;57.77;100327.31;5033326;28;53791;-63
2022/04/12 00:37:06;;;;;;;;;2.67;2.33;;;;;23.15;57.51;100318.44;5032030;28;47503;-62
2022/04/12 00:39:34;;;;;;;;;3.00;3.00;;;;;23.15;57.90;100313.91;5033905;28;62845;-62
2022/04/12 00:42:00;;;;;;;;;1.00;1.00;;;;;23.12;57.93;100303.31;5035171;28;45355;-61
2022/04/12 00:44:25;;;;;;;;;1.00;1.00;;;;;23.12;57.65;100297.06;5033544;28;45495;-62
2022/04/12 00:46:50;;;;;;;;;1.00;1.00;;;;;23.13;58.05;100307.75;5031801;28;50075;-62
2022/04/12 00:49:16;;;;;;;;;4.67;2.00;;;;;23.13;57.83;100301.50;5038266;28;45423;-63
2022/04/12 00:51:41;;;;;;;;;1.00;1.00;;;;;23.11;57.79;100296.16;5030987;28;45855;-61
2022/04/12 00:54:07;;;;;;;;;2.00;2.00;;;;;23.12;58.04;100299.75;5016722;28;54484;-62
2022/04/12 00:56:32;;;;;;;;;4.00;2.00;;;;;23.12;57.85;100291.69;5035148;28;47630;-63
2022/04/12 00:59:03;;;;;;;;;2.00;2.00;;;;;23.12;58.06;100292.53;5034420;28;45586;-61
2022/04/12 01:01:29;;;;;;;;;3.00;3.00;;;;;23.10;58.20;100289.03;5020574;28;45413;-63
2022/04/12 01:03:54;;;;;;;;;3.00;1.00;;;;;23.11;58.04;100292.59;5035647;28;45457;-61
2022/04/12 01:06:20;;;;;;;;;3.00;2.00;;;;;23.11;58.10;100296.16;5037506;28;64405;-63
2022/04/12 01:08:45;;;;;;;;;2.00;1.00;;;;;23.10;58.06;100289.03;5018973;28;49529;-61
2022/04/12 01:11:12;;;;;;;;;3.00;2.00;;;;;23.09;58.21;100298.06;5037582;28;45213;-62
2022/04/12 01:13:42;;;;;;;;;1.00;1.00;;;;;23.09;58.08;100298.06;5038361;28;45336;-62
2022/04/12 01:16:07;;;;;;;;;2.00;2.00;;;;;23.09;58.38;100290.00;5037979;28;46785;-64
2022/04/12 01:18:34;;;;;;;;;3.00;1.00;;;;;23.08;58.37;100282.88;5031859;28;45499;-62
2022/04/12 01:21:03;;;;;;;;;1.00;1.00;;;;;23.10;58.44;100285.47;5037955;28;45531;-64
2022/04/12 01:23:31;;;;;;;;;4.00;2.00;;;;;23.06;57.93;100290.13;5036925;28;45134;-60
2022/04/12 01:25:57;;;;;;;;;2.00;2.00;;;;;23.07;58.63;100294.59;5014774;28;46527;-64
2022/04/12 01:28:24;;;;;;;;;4.00;1.67;;;;;23.07;58.15;100293.72;5038024;28;45486;-62
2022/04/12 01:30:51;;;;;;;;;1.33;1.33;;;;;23.07;58.46;100289.19;5036407;28;57992;-64
2022/04/12 01:33:16;;;;;;;;;2.00;2.00;;;;;23.07;58.52;100285.66;5036252;28;45271;-64
2022/04/12 01:35:42;;;;;;;;;2.00;2.00;;;;;23.05;58.67;100280.31;5033280;28;57003;-62
2022/04/12 01:38:07;;;;;;;;;1.33;1.00;;;;;23.05;58.51;100284.81;5037957;28;48557;-62
2022/04/12 01:40:33;;;;;;;;;2.00;2.00;;;;;23.06;58.55;100289.25;5038107;28;53975;-61
2022/04/12 01:42:58;;;;;;;;;4.33;2.00;;;;;23.04;58.65;100289.34;5040607;28;45200;-62
2022/04/12 01:45:24;;;;;;;;;4.00;2.00;;;;;23.07;58.53;100307.19;5039888;28;56093;-62
2022/04/12 01:47:50;;;;;;;;;3.33;3.00;;;;;23.05;58.67;100312.63;5037573;28;45473;-64
2022/04/12 01:50:15;;;;;;;;;2.00;2.00;;;;;23.05;58.35;100314.44;5032683;28;57284;-63
2022/04/12 01:52:42;;;;;;;;;3.00;1.00;;;;;23.03;58.74;100317.22;5029890;28;45296;-62
2022/04/12 01:55:08;;;;;;;;;1.00;1.00;;;;;23.04;58.71;100310.88;5033796;28;63346;-63
2022/04/12 01:57:34;;;;;;;;;2.00;2.00;;;;;23.04;58.67;100318.97;5032909;28;45362;-63
2022/04/12 02:00:04;;;;;;;;;3.00;3.00;;;;;23.03;58.62;100297.50;5035021;28;58096;-61
2022/04/12 02:02:29;;;;;;;;;1.00;1.00;;;;;23.04;58.77;100310.88;5033395;28;45617;-61
2022/04/12 02:04:54;;;;;;;;;2.00;2.00;;;;;23.03;58.84;100308.28;5028647;28;45518;-62
2022/04/12 02:07:20;;;;;;;;;3.33;2.00;;;;;23.00;58.91;100299.38;5037005;28;45387;-63
2022/04/12 02:09:45;;;;;;;;;1.00;1.00;;;;;23.04;58.82;100291.16;5035126;28;56264;-61
2022/04/12 02:12:11;;;;;;;;;1.67;1.67;;;;;23.03;59.13;100290.28;5036986;28;52905;-63
2022/04/12 02:14:36;;;;;;;;;3.00;1.00;;;;;23.02;58.97;100283.16;5033522;28;46279;-62
2022/04/12 02:17:03;;;;;;;;;2.67;2.00;;;;;23.02;58.98;100280.47;5029889;28;45548;-62
2022/04/12 02:19:29;;;;;;;;;1.00;1.00;;;;;23.00;58.99;100275.16;5032140;28;45633;-61
2022/04/12 02:21:54;;;;;;;;;4.00;3.00;;;;;23.02;59.08;100277.78;5037009;28;45578;-61
2022/04/12 02:24:19;;;;;;;;;2.00;2.00;;;;;23.04;59.41;100280.41;5029367;28;54865;-62
2022/04/12 02:26:45;;;;;;;;;3.33;2.00;;;;;23.04;59.24;100277.69;5037242;28;47080;-62
2022/04/12 02:29:13;;;;;;;;;3.00;3.00;;;;;23.03;58.98;100275.97;5037114;28;45278;-62
2022/04/12 02:31:39;;;;;;;;;3.00;1.33;;;;;23.03;59.27;100271.44;5021977;28;45204;-61
2022/04/12 02:34:04;;;;;;;;;1.33;1.33;;;;;23.05;59.38;100274.06;5031592;28;46566;-61
2022/04/12 02:36:29;;;;;;;;;1.00;1.00;;;;;23.03;59.43;100270.56;5035352;28;61431;-62
2022/04/12 02:38:55;;;;;;;;;4.67;2.00;;;;;23.04;59.40;100283.09;5037401;28;45558;-61
2022/04/12 02:43:45;;;;;;;;;3.33;2.00;;;;;23.05;59.39;100300.97;5191725;22;74217;-62
2022/04/12 02:46:11;;;;;;;;;1.00;1.00;;;;;23.04;59.32;100293.84;5054932;28;45219;-64
2022/04/12 02:48:36;;;;;;;;;2.00;2.00;;;;;23.05;59.47;100287.50;5038710;28;45135;-62
2022/04/12 02:51:01;;;;;;;;;2.00;2.00;;;;;23.04;59.29;100283.09;5046769;28;45645;-61
2022/04/12 02:53:27;;;;;;;;;1.00;1.00;;;;;23.02;59.50;100280.47;5055679;28;63621;-61
2022/04/12 02:55:52;;;;;;;;;5.00;2.00;;;;;23.05;59.60;100282.13;5054414;28;45476;-62
2022/04/12 02:58:18;;;;;;;;;1.33;1.33;;;;;23.05;59.74;100285.69;5049338;28;45337;-61
2022/04/12 03:00:44;;;;;;;;;2.33;2.33;;;;;23.05;60.18;100287.50;5052532;28;45470;-61
2022/04/12 03:03:10;;;;;;;;;1.33;1.33;;;;;23.07;59.84;100281.13;5053515;28;46073;-60
2022/04/12 03:05:35;;;;;;;;;1.33;1.33;;;;;23.09;59.97;100278.34;5050983;28;45357;-62
2022/04/12 03:08:01;;;;;;;;;4.67;2.33;;;;;23.11;59.88;100271.06;5052402;28;45366;-62
2022/04/12 03:10:27;;;;;;;;;1.00;1.00;;;;;23.12;60.02;100262.06;5054079;28;45695;-63
2022/04/12 03:12:52;;;;;;;;;2.00;2.00;;;;;23.13;59.89;100247.63;5056488;28;46784;-64
2022/04/12 03:15:18;;;;;;;;;3.00;1.33;;;;;23.17;59.69;100246.50;5055405;28;45828;-60
2022/04/12 03:17:43;;;;;;;;;1.00;1.00;;;;;23.16;59.83;100240.25;5057249;28;45207;-62
2022/04/12 03:20:09;;;;;;;;;2.00;2.00;;;;;23.19;59.84;100253.56;5057077;28;45533;-61
2022/04/12 03:22:34;;;;;;;;;3.67;1.00;;;;;23.19;59.64;100247.31;5057239;28;45836;-61
2022/04/12 03:25:01;;;;;;;;;1.00;1.00;;;;;23.19;59.68;100245.50;5056002;28;45354;-64
2022/04/12 03:27:27;;;;;;;;;2.00;2.00;;;;;23.20;59.47;100249.06;5037142;28;45186;-62
2022/04/12 03:29:52;;;;;;;;;1.67;1.67;;;;;23.19;59.67;100256.25;5047044;28;46650;-61
2022/04/12 03:32:18;;;;;;;;;2.00;2.00;;;;;23.21;59.79;100253.47;5035007;28;52273;-61
2022/04/12 03:34:44;;;;;;;;;1.00;1.00;;;;;23.19;59.61;100250.00;5055217;28;57760;-62
2022/04/12 03:37:10;;;;;;;;;2.00;2.00;;;;;23.20;59.39;100254.44;5047870;28;45445;-62
2022/04/12 03:39:35;;;;;;;;;1.33;1.33;;;;;23.18;59.63;100253.66;5052022;28;51335;-61
2022/04/12 03:42:01;;;;;;;;;1.67;1.67;;;;;23.15;59.56;100262.75;5055413;28;52004;-62
2022/04/12 03:44:26;;;;;;;;;1.00;1.00;;;;;23.17;59.17;100268.03;5055101;28;45323;-61
2022/04/12 03:46:52;;;;;;;;;1.33;1.33;;;;;23.17;59.76;100290.50;5046709;28;55901;-63
2022/04/12 03:49:17;;;;;;;;;2.00;2.00;;;;;23.17;59.51;100293.19;5049849;28;45569;-61
2022/04/12 03:51:42;;;;;;;;;2.00;2.00;;;;;23.15;59.35;100291.50;5055350;28;64049;-61
2022/04/12 03:54:08;;;;;;;;;2.00;2.00;;;;;23.17;59.45;100284.22;5055067;28;60605;-62
2022/04/12 03:56:34;;;;;;;;;2.00;2.00;;;;;23.15;59.40;100276.22;5050553;28;45256;-61
2022/04/12 03:58:59;;;;;;;;;1.67;1.67;;;;;23.14;59.17;100263.69;5037045;28;45270;-60
2022/04/12 04:01:25;;;;;;;;;2.33;2.00;;;;;23.14;59.64;100269.09;5046949;28;45600;-62
2022/04/12 04:03:51;;;;;;;;;1.67;1.67;;;;;23.13;59.57;100267.34;5051873;28;45501;-61
2022/04/12 04:06:17;;;;;;;;;1.00;1.00;;;;;23.11;59.32;100252.19;5054289;28;45234;-60
2022/04/12 04:08:42;;;;;;;;;1.00;1.00;;;;;23.10;59.26;100261.22;5051989;28;45500;-61
2022/04/12 04:11:07;;;;;;;;;1.00;1.00;;;;;23.09;59.40;100259.50;5051610;28;64960;-62
2022/04/12 04:13:36;;;;;;;;;2.33;2.00;;;;;23.09;59.30;100265.75;5048756;28;57824;-62
2022/04/12 04:16:05;;;;;;;;;2.00;2.00;;;;;23.11;59.41;100287.22;5052600;28;45300;-61
2022/04/12 04:18:31;;;;;;;;;2.00;2.00;;;;;23.07;59.65;100278.44;5047553;28;45306;-61
2022/04/12 04:20:56;;;;;;;;;2.00;2.00;;;;;23.07;59.45;100277.56;5054024;28;47766;-62
2022/04/12 04:23:22;;;;;;;;;2.00;2.00;;;;;23.08;59.30;100280.16;5058803;28;50211;-62
2022/04/12 04:25:48;;;;;;;;;1.00;1.00;;;;;23.06;59.32;100276.66;5058269;28;45979;-63
2022/04/12 04:28:13;;;;;;;;;1.67;1.67;;;;;23.06;59.58;100273.97;5056435;28;45721;-60
2022/04/12 04:30:44;;;;;;;;;2.00;2.00;;;;;23.06;59.36;100281.19;5058484;28;47666;-60
2022/04/12 04:33:10;;;;;;;;;1.33;1.33;;;;;22.98;59.19;100274.34;5057605;28;45577;-62
2022/04/12 04:35:35;;;;;;;;;2.00;2.00;;;;;23.02;59.41;100276.91;5056776;28;46005;-61
2022/04/12 04:38:00;;;;;;;;;2.00;2.00;;;;;23.03;59.34;100271.44;5052965;28;45529;-63
2022/04/12 04:40:26;;;;;;;;;2.00;2.00;;;;;23.05;59.54;100288.38;5056482;28;46044;-62
2022/04/12 04:42:52;;;;;;;;;1.00;1.00;;;;;23.06;59.39;100291.94;5057711;28;52051;-62
2022/04/12 04:45:18;;;;;;;;;2.00;2.00;;;;;23.05;59.40;100287.50;5041151;28;45387;-62
2022/04/12 04:47:55;;;;;;;;;3.00;1.33;;;;;23.04;59.30;100283.09;5040534;28;45222;-62
2022/04/12 04:50:31;;;;;;;;;3.00;1.33;;;;;23.06;59.43;100289.25;5054118;28;45654;-61
2022/04/12 04:53:01;;;;;;;;;3.00;2.00;;;;;23.06;59.46;100289.25;5052123;28;45431;-60
2022/04/12 04:55:26;;;;;;;;;1.33;1.33;;;;;23.06;59.83;100291.94;5056662;28;45304;-61
2022/04/12 04:57:56;;;;;;;;;1.33;1.33;;;;;23.04;59.38;100288.47;5058346;28;45489;-62
2022/04/12 05:00:25;;;;;;;;;3.00;1.00;;;;;23.04;59.58;100281.25;5034814;28;45646;-62
2022/04/12 05:02:52;;;;;;;;;1.67;1.67;;;;;23.06;59.44;100291.94;5056311;28;46221;-62
2022/04/12 05:05:18;;;;;;;;;2.00;2.00;;;;;23.04;59.37;100285.78;5058497;28;45776;-61
2022/04/12 05:07:45;;;;;;;;;4.00;2.33;;;;;23.03;59.34;100279.53;5050387;28;45554;-62
2022/04/12 05:10:37;;;;;;;;;1.33;1.00;;;;;23.06;59.37;100297.34;5057008;28;46492;-61
2022/04/12 05:13:02;;;;;;;;;2.00;2.00;;;;;22.99;56.28;100305.72;5051338;28;58547;-68
2022/04/12 05:15:28;;;;;;;;;2.33;2.33;;;;;22.83;53.23;100312.75;5056790;28;45536;-67
2022/04/12 05:17:54;;;;;;;;;3.33;3.00;;;;;22.61;51.79;100325.50;5052137;28;45546;-71
2022/04/12 05:20:22;;;;;;;;;3.00;1.33;;;;;22.34;51.32;100327.66;5038770;28;46005;-67
2022/04/12 05:22:48;;;;;;;;;2.00;2.00;;;;;22.09;50.93;100326.03;5056586;28;45534;-68
2022/04/12 05:25:14;;;;;;;;;3.00;3.00;;;;;21.87;50.91;100323.41;5044064;28;45547;-70
2022/04/12 05:27:39;;;;;;;;;2.33;2.33;;;;;21.63;50.84;100328.03;5053082;28;45428;-71
2022/04/12 05:30:10;;;;;;;;;4.33;2.00;;;;;21.40;51.07;100328.13;5051956;28;60919;-69
2022/04/12 05:32:36;;;;;;;;;3.00;2.00;;;;;21.14;50.90;100326.47;5050613;28;45467;-68
2022/04/12 05:35:02;;;;;;;;;4.00;2.00;;;;;20.92;50.71;100331.84;5033654;28;45436;-67
2022/04/12 05:37:31;;;;;;;;;4.00;3.00;;;;;20.70;51.53;100330.94;5037475;28;45610;-68
2022/04/12 05:39:56;;;;;;;;;2.00;2.00;;;;;20.48;52.00;100322.84;5044512;28;45518;-68
2022/04/12 05:42:25;;;;;;;;;4.33;3.00;;;;;20.32;51.97;100326.06;5035475;28;45558;-69
2022/04/12 05:44:50;;;;;;;;;3.33;3.33;;;;;20.19;52.60;100331.91;5044299;28;45459;-69
2022/04/12 05:47:15;;;;;;;;;2.33;2.33;;;;;20.02;52.83;100329.84;5053587;28;45512;-68
2022/04/12 05:49:41;;;;;;;;;6.00;3.00;;;;;19.89;53.81;100337.47;5048616;28;63368;-68
2022/04/12 05:52:08;;;;;;;;;2.00;2.00;;;;;19.77;54.55;100346.81;5051500;28;51343;-69
2022/04/12 05:54:34;;;;;;;;;4.33;3.00;;;;;19.66;54.62;100342.75;5051574;28;45529;-69
2022/04/12 05:57:22;;;;;;;;;4.00;2.00;;;;;19.57;55.14;100346.56;5047297;28;45711;-68
2022/04/12 05:59:48;;;;;;;;;3.00;3.00;;;;;19.47;55.05;100353.16;5049525;28;45581;-68
2022/04/12 06:02:28;;;;;;;;;5.00;4.00;;;;;19.40;55.96;100359.66;5054619;28;45553;-67
2022/04/12 06:04:53;;;;;;;;;4.67;3.00;;;;;19.30;56.33;100359.94;5032796;28;45479;-69
2022/04/12 06:07:46;;;;;;;;;4.00;3.00;;;;;19.28;56.26;100342.16;5050112;28;49828;-71
2022/04/12 06:10:19;;;;;;;;;2.67;2.67;;;;;19.31;56.75;100356.34;5047406;28;45507;-69
2022/04/12 06:12:45;;;;;;;;;3.33;2.00;;;;;19.29;57.12;100358.19;5046598;28;47017;-70
2022/04/12 06:15:11;;;;;;;;;4.00;3.00;;;;;19.27;57.02;100353.81;5055990;28;45465;-69
2022/04/12 06:17:37;;;;;;;;;6.67;4.00;;;;;19.29;57.06;100371.59;5048287;28;45317;-71
2022/04/12 06:23:31;;;;;;;;;4.00;2.00;;;;;19.31;56.62;100364.38;5044141;28;45770;-72
2022/04/12 06:26:32;;;;;;;;;3.00;3.00;;;;;19.38;59.40;100365.91;5044672;28;45442;-62
2022/04/12 06:29:16;;;;;;;;;2.67;2.67;;;;;19.56;60.49;100375.16;5046607;28;45542;-64
2022/04/12 06:32:35;;;;;;;;;3.00;3.00;;;;;19.79;60.83;100377.09;5045530;28;45604;-61
2022/04/12 06:35:18;;;;;;;;;3.33;3.33;;;;;20.00;60.95;100371.91;4995209;28;45506;-65
2022/04/12 06:38:00;;;;;;;;;2.67;2.67;;;;;20.20;60.77;100393.53;5029218;28;45554;-62
2022/04/12 06:40:39;;;;;;;;;3.00;3.00;;;;;20.38;61.41;100395.53;5045694;28;45495;-61
2022/04/12 06:43:06;;;;;;;;;4.00;3.00;;;;;20.52;61.16;100404.94;5045250;28;45404;-61
2022/04/12 06:45:40;;;;;;;;;2.33;2.33;;;;;20.66;61.31;100403.47;5051146;28;46435;-62
2022/04/12 06:48:06;;;;;;;;;3.00;3.00;;;;;20.80;60.89;100408.34;5042235;28;45556;-63
2022/04/12 06:50:32;;;;;;;;;3.00;2.00;;;;;20.90;60.59;100404.38;5045440;28;45470;-61
2022/04/12 06:52:58;;;;;;;;;2.33;2.00;;;;;21.00;60.24;100407.56;5053068;28;46374;-63
2022/04/12 06:55:23;;;;;;;;;3.67;2.00;;;;;21.11;60.47;100407.16;5049092;28;45497;-61
2022/04/12 06:57:49;;;;;;;;;2.33;2.00;;;;;21.21;60.73;100415.72;5046702;28;45518;-63
2022/04/12 07:00:17;;;;;;;;;4.33;2.00;;;;;21.28;60.73;100417.22;5053593;28;45486;-61
2022/04/12 07:02:42;;;;;;;;;2.00;2.00;;;;;21.33;60.72;100417.94;5043684;28;45960;-61
2022/04/12 07:05:08;;;;;;;;;2.33;2.00;;;;;21.42;60.43;100431.91;5047848;28;45507;-61
2022/04/12 07:07:38;;;;;;;;;3.00;2.00;;;;;21.50;60.44;100428.00;5048797;28;45529;-60
2022/04/12 07:10:06;;;;;;;;;3.33;2.00;;;;;21.54;60.30;100416.22;5046722;28;45361;-62
2022/04/12 07:12:32;;;;;;;;;1.67;1.67;;;;;21.61;60.00;100420.38;5053646;28;46806;-61
2022/04/12 07:14:57;;;;;;;;;2.00;2.00;;;;;21.69;60.42;100442.47;5046992;28;45691;-63
2022/04/12 07:17:22;;;;;;;;;2.67;1.33;;;;;21.75;60.18;100444.00;5045329;28;45571;-61
2022/04/12 07:19:48;;;;;;;;;2.33;2.00;;;;;21.79;60.33;100451.03;5046691;28;52811;-62
2022/04/12 07:22:13;;;;;;;;;3.00;2.00;;;;;21.81;60.63;100450.00;5044534;28;62713;-61
2022/04/12 07:24:39;;;;;;;;;1.00;1.00;;;;;21.88;60.13;100458.69;5050870;28;45341;-61
2022/04/12 07:27:04;;;;;;;;;2.00;2.00;;;;;21.90;60.53;100443.38;5052593;28;45468;-61
2022/04/12 07:29:30;;;;;;;;;1.33;1.33;;;;;21.93;59.72;100427.97;5048782;28;54947;-63
2022/04/12 07:31:56;;;;;;;;;1.33;1.33;;;;;21.98;60.36;100438.53;5050830;28;47311;-62
2022/04/12 07:34:22;;;;;;;;;1.33;1.33;;;;;22.03;60.37;100441.91;5047285;28;45459;-61
2022/04/12 07:36:49;;;;;;;;;3.00;2.00;;;;;22.04;59.85;100434.72;5048358;28;45493;-63
2022/04/12 07:39:18;;;;;;;;;2.00;2.00;;;;;22.08;60.44;100449.78;5028241;28;45508;-63
2022/04/12 07:41:43;;;;;;;;;1.00;1.00;;;;;22.11;60.08;100444.31;5034364;28;48204;-62
2022/04/12 07:44:08;;;;;;;;;1.00;1.00;;;;;22.14;59.98;100446.84;5051536;28;45405;-61
2022/04/12 07:46:34;;;;;;;;;3.00;1.67;;;;;22.13;60.23;100432.53;5051316;28;45463;-64
2022/04/12 07:48:59;;;;;;;;;2.00;2.00;;;;;22.17;60.02;100434.16;5049311;28;46421;-63
2022/04/12 07:51:25;;;;;;;;;3.00;2.00;;;;;22.18;60.10;100432.34;5042586;28;45932;-62
2022/04/12 07:53:50;;;;;;;;;1.00;1.00;;;;;22.21;59.90;100441.16;5054194;28;59707;-66
2022/04/12 07:56:16;;;;;;;;;1.00;1.00;;;;;22.23;59.90;100443.78;5062179;28;45430;-62
2022/04/12 07:58:42;;;;;;;;;2.00;1.00;;;;;22.25;60.23;100454.47;5059550;28;45191;-66
2022/04/12 08:01:07;;;;;;;;;1.67;1.67;;;;;22.26;60.87;100445.44;5048202;28;46691;-62
2022/04/12 08:03:32;;;;;;;;;3.00;3.00;;;;;22.26;58.01;100440.06;5032074;28;45432;-68
2022/04/12 08:05:58;;;;;;;;;4.00;3.00;;;;;22.08;55.94;100437.22;5048812;28;45764;-69
2022/04/12 08:08:23;;;;;;;;;5.33;3.00;;;;;21.90;55.12;100440.69;5050533;28;54387;-67
2022/04/12 08:10:49;;;;;;;;;5.33;3.00;;;;;21.73;53.90;100433.31;5053794;28;45654;-67
2022/04/12 08:13:14;;;;;;;;;3.00;3.00;;;;;21.55;53.32;100434.06;5053459;28;45391;-66
2022/04/12 08:15:40;;;;;;;;;3.33;2.00;;;;;21.42;54.25;100431.03;5053223;28;45440;-66
2022/04/12 08:18:06;;;;;;;;;4.00;3.00;;;;;21.32;53.71;100435.88;5047163;28;52283;-67
2022/04/12 08:20:32;;;;;;;;;3.33;2.33;;;;;21.25;53.49;100430.75;5051510;28;47850;-67
2022/04/12 08:22:57;;;;;;;;;3.33;2.67;;;;;21.11;53.70;100432.19;5051313;28;45494;-67
2022/04/12 08:25:23;;;;;;;;;4.67;2.00;;;;;21.02;54.17;100431.66;5052802;28;46739;-67
2022/04/12 08:27:48;;;;;;;;;3.67;3.00;;;;;20.99;54.39;100440.72;5053356;28;45430;-66
2022/04/12 08:30:14;;;;;;;;;2.00;2.00;;;;;20.97;54.35;100447.94;5043957;28;45945;-68
2022/04/12 08:32:39;;;;;;;;;4.00;2.33;;;;;20.90;53.06;100450.00;5050957;28;46925;-68
2022/04/12 08:35:06;;;;;;;;;2.00;2.00;;;;;20.88;53.02;100442.94;5045849;28;45979;-67
2022/04/12 08:37:32;;;;;;;;;0.00;0.00;;;;;20.82;54.45;100444.03;5050144;28;45537;-67
2022/04/12 08:39:57;;;;;;;;;2.00;2.00;;;;;20.78;54.64;100439.72;5053950;28;45404;-66
2022/04/12 08:42:22;;;;;;;;;2.00;2.00;;;;;20.77;53.68;100426.34;5032238;28;46121;-66
2022/04/12 08:44:49;;;;;;;;;5.00;1.00;;;;;20.78;54.26;100439.72;5052943;28;45644;-68
2022/04/12 08:47:15;;;;;;;;;2.33;1.00;;;;;20.76;54.38;100438.00;5049140;28;45583;-67
2022/04/12 08:49:41;;;;;;;;;2.00;2.00;;;;;20.77;55.03;100447.81;5042276;28;46672;-66
2022/04/12 08:52:11;;;;;;;;;1.00;1.00;;;;;20.81;54.58;100454.81;5032388;28;45570;-64
2022/04/12 08:54:39;;;;;;;;;2.00;2.00;;;;;20.82;54.04;100438.66;5036243;28;45217;-66
2022/04/12 08:57:05;;;;;;;;;2.00;1.33;;;;;20.84;53.90;100436.81;5050640;28;45549;-65
2022/04/12 08:59:30;;;;;;;;;2.00;2.00;;;;;20.89;53.58;100442.00;5048577;28;45345;-64
2022/04/12 09:01:57;;;;;;;;;2.00;2.00;;;;;20.87;53.71;100444.72;5053714;28;45533;-66
2022/04/12 09:04:26;;;;;;;;;3.00;2.00;;;;;20.88;53.15;100440.25;5053525;28;45503;-68
2022/04/12 09:06:53;;;;;;;;;2.67;1.33;;;;;20.92;54.59;100447.25;5050553;28;45482;-66
2022/04/12 09:09:21;;;;;;;;;1.00;1.00;;;;;20.93;53.52;100444.53;5036239;28;46405;-67
2022/04/12 09:11:55;;;;;;;;;4.00;1.00;;;;;20.93;53.76;100444.53;5053668;28;45396;-65
2022/04/12 09:14:20;;;;;;;;;1.33;1.33;;;;;20.92;53.39;100445.44;5051663;28;45500;-65
2022/04/12 09:16:46;;;;;;;;;5.67;1.00;;;;;20.90;53.79;100438.38;5053137;28;45581;-65
2022/04/12 09:19:12;;;;;;;;;3.00;1.00;;;;;20.87;53.52;100439.34;5051659;28;45819;-67
2022/04/12 09:21:47;;;;;;;;;2.00;2.00;;;;;20.82;52.76;100430.59;5053779;28;45474;-65
2022/04/12 09:24:22;;;;;;;;;1.00;1.00;;;;;20.75;52.54;100426.41;5055817;28;45511;-66
2022/04/12 09:26:55;;;;;;;;;1.00;1.00;;;;;20.76;53.56;100424.59;5050072;28;50044;-65
2022/04/12 09:29:29;;;;;;;;;1.67;1.67;;;;;20.75;52.96;100417.50;5053761;28;46882;-65
2022/04/12 09:31:58;;;;;;;;;1.67;1.67;;;;;20.78;53.69;100418.25;5049506;28;45524;-66
2022/04/12 09:34:26;;;;;;;;;1.00;1.00;;;;;20.84;54.68;100426.06;5028628;28;45498;-65
2022/04/12 09:36:52;;;;;;;;;3.33;1.00;;;;;20.87;53.70;100417.88;5055205;28;45465;-65
2022/04/12 09:39:21;;;;;;;;;2.00;2.00;;;;;20.90;54.21;100400.81;5052479;28;46277;-66
2022/04/12 09:41:49;;;;;;;;;2.00;1.00;;;;;20.94;54.24;100418.56;5051829;28;45504;-65
2022/04/12 09:44:20;;;;;;;;;3.00;2.00;;;;;20.98;53.85;100414.78;5045457;28;45428;-67
2022/04/12 09:46:47;;;;;;;;;2.67;1.00;;;;;21.01;54.51;100421.88;5055948;28;45470;-66
2022/04/12 09:49:13;;;;;;;;;1.67;1.67;;;;;21.05;54.44;100421.69;5047983;28;46759;-65
2022/04/12 09:51:38;;;;;;;;;1.00;1.00;;;;;21.07;54.76;100405.53;5048235;28;45467;-65
2022/04/12 09:54:08;;;;;;;;;0.00;0.00;;;;;21.10;53.96;100406.28;5050973;28;45754;-67
2022/04/12 09:56:39;;;;;;;;;1.00;1.00;;;;;21.13;54.64;100398.09;5052094;28;45493;-68
2022/04/12 09:59:08;;;;;;;;;4.33;1.00;;;;;21.17;55.28;100398.84;5052031;28;46628;-67
2022/04/12 10:01:39;;;;;;;;;1.00;1.00;;;;;21.25;54.34;100398.53;5050055;28;45590;-66
2022/04/12 10:04:08;;;;;;;;;3.00;1.00;;;;;21.27;55.27;100410.97;5032357;28;45519;-67
2022/04/12 10:06:39;;;;;;;;;1.67;1.00;;;;;21.30;54.52;100416.25;5053581;28;45587;-68
2022/04/12 10:09:07;;;;;;;;;1.67;0.67;;;;;21.31;54.53;100411.78;5049393;28;46052;-65
2022/04/12 10:11:32;;;;;;;;;2.00;2.00;;;;;21.36;54.71;100416.03;5033446;28;45460;-67
2022/04/12 10:14:00;;;;;;;;;1.00;1.00;;;;;21.36;54.64;100399.00;5046422;28;45427;-69
2022/04/12 10:16:25;;;;;;;;;2.00;1.33;;;;;21.40;54.31;100397.97;5048944;28;45738;-66
2022/04/12 10:18:52;;;;;;;;;4.00;1.00;;;;;21.38;54.04;100379.22;5053539;28;46095;-66
2022/04/12 10:21:19;;;;;;;;;1.00;1.00;;;;;21.39;54.36;100378.28;5054712;28;45609;-67
2022/04/12 10:23:48;;;;;;;;;2.00;2.00;;;;;21.39;53.39;100378.28;5053116;28;45594;-67
2022/04/12 10:26:19;;;;;;;;;1.00;1.00;;;;;21.36;53.35;100366.78;5051628;28;45416;-67
2022/04/12 10:28:45;;;;;;;;;4.00;2.00;;;;;21.39;52.65;100369.34;5024902;28;46931;-69
2022/04/12 10:31:13;;;;;;;;;2.00;2.00;;;;;21.34;52.74;100363.28;5029674;28;56436;-66
2022/04/12 10:33:38;;;;;;;;;2.00;1.33;;;;;21.29;52.60;100359.88;5054029;28;45551;-67
2022/04/12 10:36:06;;;;;;;;;4.00;2.00;;;;;21.31;53.91;100355.38;5031070;28;56856;-67
2022/04/12 10:38:42;;;;;;;;;1.33;1.33;;;;;21.34;54.16;100344.50;5031694;28;46452;-66
2022/04/12 10:41:24;;;;;;;;;3.00;1.67;;;;;21.38;55.09;100357.75;5054286;28;45495;-67
2022/04/12 10:43:54;;;;;;;;;1.00;1.00;;;;;21.44;54.92;100360.16;5036591;28;45522;-68
2022/04/12 10:46:20;;;;;;;;;2.00;1.00;;;;;21.50;54.79;100376.97;5055775;28;45761;-67
2022/04/12 10:48:53;;;;;;;;;3.00;2.00;;;;;21.53;54.50;100390.28;5032177;28;45892;-67
2022/04/12 10:51:35;;;;;;;;;3.00;1.33;;;;;21.56;54.02;100385.63;5055008;28;45391;-68
2022/04/12 10:54:01;;;;;;;;;4.00;3.00;;;;;21.52;54.26;100380.47;5024478;28;45538;-69
2022/04/12 10:56:26;;;;;;;;;3.00;2.00;;;;;21.60;54.66;100389.97;5052154;28;45510;-67
2022/04/12 10:58:51;;;;;;;;;3.00;1.67;;;;;21.66;54.26;100388.81;5053627;28;45731;-68
2022/04/12 11:01:35;;;;;;;;;5.00;2.00;;;;;21.68;54.39;100395.03;5056046;28;45395;-68
2022/04/12 11:04:04;;;;;;;;;2.33;1.00;;;;;21.70;55.17;100398.53;5049679;28;45439;-67
2022/04/12 11:06:31;;;;;;;;;2.00;2.00;;;;;21.76;54.92;100398.25;5058495;28;45336;-67
2022/04/12 11:09:05;;;;;;;;;1.00;1.00;;;;;21.79;54.74;100416.09;5056334;28;46207;-67
2022/04/12 11:11:42;;;;;;;;;2.00;2.00;;;;;21.81;55.24;100428.50;5049141;28;45540;-67
2022/04/12 11:14:36;;;;;;;;;3.00;1.33;;;;;21.82;55.15;100424.88;5051878;28;45510;-68
2022/04/12 11:17:14;;;;;;;;;1.33;1.00;;;;;21.86;55.46;100436.38;5055050;28;45506;-67
2022/04/12 11:19:48;;;;;;;;;2.00;1.33;;;;;21.88;55.36;100435.34;5038493;28;46503;-67
2022/04/12 11:22:15;;;;;;;;;1.00;1.00;;;;;21.90;55.23;100430.81;5053776;28;45568;-68
2022/04/12 11:24:40;;;;;;;;;2.00;2.00;;;;;21.94;55.89;100435.13;5056426;28;45577;-67
2022/04/12 11:27:07;;;;;;;;;4.00;2.00;;;;;21.97;55.81;100434.97;5054105;28;45457;-68
2022/04/12 11:29:33;;;;;;;;;2.33;1.00;;;;;22.00;54.95;100446.53;5050934;28;45950;-67
2022/04/12 11:31:58;;;;;;;;;2.00;2.00;;;;;22.04;55.64;100448.16;5031000;28;45308;-67
2022/04/12 11:34:26;;;;;;;;;0.33;0.33;;;;;22.04;56.05;100446.34;5056441;28;45546;-67